Terminal Aerodrome Forecast
Issued by NWS Charleston, WV

Current Version | Previous Version | Graphics & Text | Print | Product List | Glossary On
Versions: 1 2 3 4 5 6 7 8 9 10 11 12 13 14 15 16 17 18 19 20 21 22 23 24 25
130
FTUS41 KRLX 280233 AAB
TAFHTS
TAF AMD
KHTS 280233Z 2803/2824 VRB03KT 6SM SHRA BR BKN030
      TEMPO 2803/2806 1/2SM FG VV002
     FM280600 00000KT 5SM +SHRA BR VCTS BKN030CB
      TEMPO 2806/2808 24014G24KT 3SM TSRA
     FM281300 VRB03KT P6SM BKN025
     FM281800 24006KT P6SM VCTS BKN035CB=

USA.gov is the U.S. government's official web portal to all federal, state and local government web resources and services.